createdAt,value
2023-12-09T00:00:01.554Z,16.00
2023-12-09T00:01:01.334Z,16.10
2023-12-09T00:02:01.122Z,17.23
2023-12-09T00:03:01.386Z,16.07
2023-12-09T00:04:01.474Z,14.43
2023-12-09T00:05:02.476Z,14.93
2023-12-09T00:06:01.262Z,14.73
2023-12-09T00:07:01.640Z,15.50
2023-12-09T00:08:01.103Z,13.17
2023-12-09T00:09:01.241Z,13.37
2023-12-09T00:10:02.262Z,14.77
2023-12-09T00:11:01.520Z,14.77
2023-12-09T00:12:01.465Z,15.03
2023-12-09T00:13:01.102Z,15.17
2023-12-09T00:14:03.898Z,14.30
2023-12-09T00:15:01.496Z,14.43
2023-12-09T00:16:01.155Z,13.00
2023-12-09T00:17:01.122Z,13.13
2023-12-09T00:18:01.359Z,12.30
2023-12-09T00:19:01.275Z,13.17
2023-12-09T00:20:01.440Z,12.53
2023-12-09T00:21:01.491Z,12.00
2023-12-09T00:22:01.458Z,11.30
2023-12-09T00:23:01.096Z,11.77
2023-12-09T00:24:01.800Z,11.43
2023-12-09T00:25:01.330Z,11.37
2023-12-09T00:26:01.096Z,12.73
2023-12-09T00:27:01.151Z,11.80
2023-12-09T00:28:01.127Z,12.57
2023-12-09T00:29:01.110Z,13.43
2023-12-09T00:30:01.500Z,15.13
2023-12-09T00:31:01.175Z,14.73
2023-12-09T00:32:01.114Z,18.17
2023-12-09T00:33:01.523Z,18.97
2023-12-09T00:34:01.756Z,19.77
2023-12-09T00:35:01.556Z,20.73
2023-12-09T00:36:01.259Z,27.90
2023-12-09T00:37:01.103Z,27.27
2023-12-09T00:38:01.419Z,28.13
2023-12-09T00:39:01.661Z,25.20
2023-12-09T00:40:01.096Z,23.23
2023-12-09T00:41:01.169Z,23.90
2023-12-09T00:42:01.459Z,23.53
2023-12-09T00:43:01.102Z,22.03
2023-12-09T00:44:01.114Z,22.00
2023-12-09T00:45:01.475Z,19.73
2023-12-09T00:46:01.453Z,19.13
2023-12-09T00:47:01.327Z,19.00
2023-12-09T00:48:01.322Z,17.70
2023-12-09T00:49:01.185Z,20.40
2023-12-09T00:50:01.989Z,18.40
2023-12-09T00:51:01.196Z,17.93
2023-12-09T00:52:01.104Z,17.17
2023-12-09T00:53:01.439Z,17.00
2023-12-09T00:54:01.138Z,17.00
2023-12-09T00:55:01.678Z,14.67
2023-12-09T00:56:01.424Z,19.13
2023-12-09T00:57:01.447Z,24.33
2023-12-09T00:58:01.254Z,26.27
2023-12-09T00:59:01.216Z,26.93
2023-12-09T01:00:01.170Z,29.17
2023-12-09T01:01:01.475Z,27.17
2023-12-09T01:02:01.495Z,28.57
2023-12-09T01:03:01.526Z,24.87
2023-12-09T01:04:01.416Z,26.47
2023-12-09T01:05:01.278Z,24.90
2023-12-09T01:06:01.470Z,28.27
2023-12-09T01:07:01.098Z,27.53
2023-12-09T01:08:01.446Z,26.67
2023-12-09T01:09:01.353Z,26.20
2023-12-09T01:10:01.126Z,24.30
2023-12-09T01:11:01.135Z,26.03
2023-12-09T01:12:01.816Z,24.47
2023-12-09T01:13:01.425Z,22.50
2023-12-09T01:14:01.133Z,23.40
2023-12-09T01:15:01.491Z,22.80
2023-12-09T01:16:01.416Z,22.53
2023-12-09T01:17:01.106Z,22.13
2023-12-09T01:18:01.210Z,22.97
2023-12-09T01:19:01.125Z,20.33
2023-12-09T01:20:01.452Z,20.40
2023-12-09T01:21:01.435Z,18.00
2023-12-09T01:22:01.120Z,18.43
2023-12-09T01:23:01.126Z,18.20
2023-12-09T01:24:01.511Z,18.47
2023-12-09T01:25:01.498Z,16.03
2023-12-09T01:26:01.444Z,16.73
2023-12-09T01:27:01.495Z,17.87
2023-12-09T01:28:01.465Z,15.77
2023-12-09T01:29:01.447Z,16.97
2023-12-09T01:30:01.212Z,16.83
2023-12-09T01:31:01.235Z,16.33
2023-12-09T01:32:01.125Z,15.43
2023-12-09T01:33:01.260Z,13.80
2023-12-09T01:34:01.267Z,14.97
2023-12-09T01:35:01.274Z,14.40
2023-12-09T01:36:01.109Z,14.30
2023-12-09T01:37:01.103Z,14.00
2023-12-09T01:38:01.434Z,13.97
2023-12-09T01:39:01.257Z,14.03
2023-12-09T01:40:01.129Z,16.33
2023-12-09T01:41:01.514Z,15.60
2023-12-09T01:42:01.373Z,18.50
2023-12-09T01:43:01.430Z,20.23
2023-12-09T01:44:01.114Z,22.63
2023-12-09T01:45:01.554Z,17.93
2023-12-09T01:46:05.511Z,17.33
2023-12-09T01:47:01.637Z,19.10
2023-12-09T01:48:01.515Z,18.00
2023-12-09T01:49:01.829Z,17.13
2023-12-09T01:50:01.959Z,18.03
2023-12-09T01:51:02.229Z,18.63
2023-12-09T01:52:02.583Z,20.80
2023-12-09T01:53:01.796Z,18.67
2023-12-09T01:54:01.551Z,18.13
2023-12-09T01:55:01.696Z,17.83
2023-12-09T01:56:03.546Z,18.17
2023-12-09T01:57:01.284Z,16.70
2023-12-09T01:58:01.539Z,16.63
2023-12-09T01:59:02.364Z,17.37
2023-12-09T02:00:02.683Z,16.53
2023-12-09T02:01:01.171Z,19.33
2023-12-09T02:02:01.715Z,18.47
2023-12-09T02:03:01.707Z,19.27
2023-12-09T02:04:02.705Z,19.17
2023-12-09T02:05:02.773Z,21.53
2023-12-09T02:06:01.631Z,20.30
2023-12-09T02:07:01.476Z,19.00
2023-12-09T02:08:01.603Z,18.40
2023-12-09T02:09:01.628Z,17.80
2023-12-09T02:10:01.267Z,19.83
2023-12-09T02:11:11.516Z,18.87
2023-12-09T02:12:11.440Z,20.23
2023-12-09T02:13:11.421Z,20.10
2023-12-09T02:14:07.031Z,17.33
2023-12-09T02:15:07.000Z,19.10
2023-12-09T02:16:09.766Z,15.50
2023-12-09T02:17:08.301Z,17.13
2023-12-09T02:18:04.021Z,15.93
2023-12-09T02:19:02.062Z,14.73
2023-12-09T02:20:02.713Z,13.10
2023-12-09T02:21:01.157Z,16.03
2023-12-09T02:22:03.183Z,17.97
2023-12-09T02:23:05.761Z,17.03
2023-12-09T02:24:01.163Z,17.20
2023-12-09T02:25:01.116Z,16.63
2023-12-09T02:26:07.967Z,15.80
2023-12-09T02:27:08.761Z,15.53
2023-12-09T02:28:05.922Z,17.87
2023-12-09T02:29:08.052Z,16.87
2023-12-09T02:30:13.787Z,17.30
2023-12-09T02:31:11.685Z,17.93
2023-12-09T02:32:05.835Z,19.40
2023-12-09T02:33:05.103Z,20.23
2023-12-09T02:34:03.345Z,19.57
2023-12-09T02:35:03.747Z,17.37
2023-12-09T02:36:03.975Z,19.67
2023-12-09T02:37:03.893Z,19.90
2023-12-09T02:38:02.688Z,26.10
2023-12-09T02:39:02.520Z,41.73
2023-12-09T02:40:02.396Z,39.30
2023-12-09T02:41:02.336Z,31.33
2023-12-09T02:42:04.242Z,51.70
2023-12-09T02:43:03.071Z,38.27
2023-12-09T02:44:01.441Z,36.63
2023-12-09T02:45:01.768Z,23.90
2023-12-09T02:46:01.132Z,26.67
2023-12-09T02:47:01.654Z,20.80
2023-12-09T02:48:01.473Z,19.60
2023-12-09T02:49:01.616Z,22.77
2023-12-09T02:50:01.433Z,23.33
2023-12-09T02:51:01.664Z,20.00
2023-12-09T02:52:01.107Z,19.00
2023-12-09T02:53:01.446Z,21.97
2023-12-09T02:54:01.151Z,20.20
2023-12-09T02:55:01.139Z,17.73
2023-12-09T02:56:01.092Z,20.00
2023-12-09T02:57:01.545Z,21.57
2023-12-09T02:58:01.104Z,20.23
2023-12-09T02:59:01.334Z,21.63
2023-12-09T03:00:01.218Z,21.37
2023-12-09T03:01:01.152Z,20.23
2023-12-09T03:02:01.096Z,19.17
2023-12-09T03:03:01.207Z,19.67
2023-12-09T03:04:02.140Z,21.43
2023-12-09T03:05:01.154Z,21.60
2023-12-09T03:06:01.112Z,21.73
2023-12-09T03:07:01.495Z,21.97
2023-12-09T03:08:01.128Z,25.97
2023-12-09T03:09:01.135Z,32.93
2023-12-09T03:10:01.362Z,26.50
2023-12-09T03:11:01.100Z,24.33
2023-12-09T03:12:01.166Z,22.47
2023-12-09T03:13:01.429Z,22.83
2023-12-09T03:14:01.411Z,21.90
2023-12-09T03:15:01.202Z,22.43
2023-12-09T03:16:01.451Z,21.13
2023-12-09T03:17:01.112Z,21.33
2023-12-09T03:18:01.374Z,21.87
2023-12-09T03:22:02.296Z,22.10
2023-12-09T03:23:01.129Z,22.23
2023-12-09T03:24:01.432Z,22.50
2023-12-09T03:25:01.183Z,22.07
2023-12-09T03:26:01.411Z,21.97
2023-12-09T03:27:01.109Z,21.70
2023-12-09T03:28:01.774Z,21.97
2023-12-09T03:29:01.100Z,22.17
2023-12-09T03:30:01.602Z,22.00
2023-12-09T03:31:02.194Z,21.77
2023-12-09T03:32:01.096Z,22.20
2023-12-09T03:37:01.755Z,21.80
2023-12-09T03:38:01.524Z,22.23
2023-12-09T03:39:01.554Z,22.87
2023-12-09T03:40:02.018Z,21.30
2023-12-09T03:41:03.597Z,21.53
2023-12-09T03:42:01.573Z,22.93
2023-12-09T03:43:01.202Z,21.10
2023-12-09T03:44:01.816Z,20.43
2023-12-09T03:45:01.548Z,20.40
2023-12-09T03:46:01.857Z,20.60
2023-12-09T03:47:04.840Z,21.83
2023-12-09T03:48:01.934Z,22.97
2023-12-09T03:49:01.698Z,23.00
2023-12-09T03:50:01.558Z,22.83
2023-12-09T03:51:01.539Z,23.70
2023-12-09T03:52:01.192Z,23.30
2023-12-09T03:53:01.194Z,24.63
2023-12-09T03:54:01.561Z,25.83
2023-12-09T03:55:01.198Z,26.83
2023-12-09T03:56:01.194Z,27.50
2023-12-09T03:57:01.237Z,27.53
2023-12-09T03:58:01.198Z,28.87
2023-12-09T03:59:01.428Z,25.00
2023-12-09T04:00:01.245Z,25.83
2023-12-09T04:01:01.516Z,25.47
2023-12-09T04:02:01.317Z,26.97
2023-12-09T04:03:01.258Z,26.67
2023-12-09T04:04:01.295Z,26.83
2023-12-09T04:05:01.546Z,27.10
2023-12-09T04:06:01.252Z,27.00
2023-12-09T04:07:01.521Z,26.93
2023-12-09T04:08:01.198Z,26.23
2023-12-09T04:09:01.246Z,26.90
2023-12-09T04:10:01.428Z,26.30
2023-12-09T04:11:01.196Z,25.13
2023-12-09T04:12:01.760Z,26.00
2023-12-09T04:13:01.194Z,25.53
2023-12-09T04:14:01.499Z,25.93
2023-12-09T04:15:01.568Z,25.80
2023-12-09T04:16:01.781Z,27.20
2023-12-09T04:17:01.206Z,28.00
2023-12-09T04:18:01.427Z,26.30
2023-12-09T04:19:01.319Z,28.43
2023-12-09T04:20:01.269Z,27.37
2023-12-09T04:21:01.423Z,25.87
2023-12-09T04:22:01.185Z,28.00
2023-12-09T04:23:01.499Z,26.57
2023-12-09T04:24:01.212Z,27.83
2023-12-09T04:25:01.176Z,26.13
2023-12-09T04:26:01.523Z,26.50
2023-12-09T04:27:01.253Z,29.03
2023-12-09T04:28:01.282Z,27.33
2023-12-09T04:29:01.261Z,27.87
2023-12-09T04:30:03.146Z,28.77
2023-12-09T04:31:01.507Z,26.93
2023-12-09T04:32:01.327Z,27.50
2023-12-09T04:33:01.225Z,26.43
2023-12-09T04:34:01.383Z,26.83
2023-12-09T04:35:01.667Z,26.87
2023-12-09T04:36:01.588Z,26.70
2023-12-09T04:37:01.533Z,27.40
2023-12-09T04:38:01.225Z,26.70
2023-12-09T04:39:01.579Z,25.00
2023-12-09T04:40:01.390Z,26.03
2023-12-09T04:41:01.240Z,26.13
2023-12-09T04:42:01.203Z,25.83
2023-12-09T04:43:01.343Z,25.10
2023-12-09T04:44:01.211Z,28.17
2023-12-09T04:45:01.234Z,28.20
2023-12-09T04:46:01.176Z,27.10
2023-12-09T04:47:02.712Z,26.23
2023-12-09T04:48:01.461Z,26.20
2023-12-09T04:49:01.716Z,27.50
2023-12-09T04:50:01.183Z,25.50
2023-12-09T04:51:01.236Z,25.30
2023-12-09T04:52:01.532Z,25.93
2023-12-09T04:53:01.512Z,26.83
2023-12-09T04:54:01.387Z,25.67
2023-12-09T04:55:01.306Z,26.67
2023-12-09T04:56:01.530Z,25.53
2023-12-09T04:57:01.270Z,25.17
2023-12-09T04:58:01.562Z,25.00
2023-12-09T04:59:01.182Z,24.57
2023-12-09T05:00:02.587Z,25.00
2023-12-09T05:01:01.175Z,25.50
2023-12-09T05:02:01.196Z,25.40
2023-12-09T05:03:01.255Z,24.87
2023-12-09T05:04:01.369Z,24.97
2023-12-09T05:05:01.404Z,25.80
2023-12-09T05:06:01.401Z,23.83
2023-12-09T05:07:01.521Z,24.20
2023-12-09T05:08:01.187Z,24.97
2023-12-09T05:09:01.600Z,24.90
2023-12-09T05:10:01.210Z,25.27
2023-12-09T05:11:01.501Z,25.77
2023-12-09T05:12:01.245Z,25.07
2023-12-09T05:13:01.518Z,26.30
2023-12-09T05:14:01.546Z,25.87
2023-12-09T05:15:01.566Z,26.33
2023-12-09T05:16:01.430Z,25.00
2023-12-09T05:17:01.513Z,25.70
2023-12-09T05:18:01.335Z,25.97
2023-12-09T05:19:01.375Z,26.00
2023-12-09T05:20:01.191Z,25.97
2023-12-09T05:21:01.516Z,24.97
2023-12-09T05:22:01.504Z,25.83
2023-12-09T05:23:01.523Z,25.93
2023-12-09T05:24:01.205Z,25.10
2023-12-09T05:25:01.179Z,25.83
2023-12-09T05:26:01.189Z,25.37
2023-12-09T05:27:01.746Z,25.00
2023-12-09T05:28:01.177Z,25.27
2023-12-09T05:29:01.201Z,23.53
2023-12-09T05:30:01.299Z,24.97
2023-12-09T05:31:01.192Z,25.00
2023-12-09T05:32:01.168Z,23.97
2023-12-09T05:33:01.661Z,25.37
2023-12-09T05:34:01.331Z,25.73
2023-12-09T05:35:01.180Z,24.90
2023-12-09T05:36:01.192Z,24.53
2023-12-09T05:37:01.260Z,26.00
2023-12-09T05:38:01.794Z,24.77
2023-12-09T05:39:01.203Z,24.70
2023-12-09T05:40:01.185Z,24.60
2023-12-09T05:41:01.930Z,24.97
2023-12-09T05:42:01.535Z,25.40
2023-12-09T05:43:01.189Z,25.53
2023-12-09T05:44:01.191Z,23.83
2023-12-09T05:45:01.277Z,24.77
2023-12-09T05:46:03.802Z,25.10
2023-12-09T05:47:01.539Z,25.37
2023-12-09T05:48:01.629Z,25.10
2023-12-09T05:49:01.422Z,24.83
2023-12-09T05:50:01.555Z,25.70
2023-12-09T05:51:02.193Z,25.77
2023-12-09T05:52:01.190Z,24.70
2023-12-09T05:53:02.638Z,25.87
2023-12-09T05:54:01.541Z,26.57
2023-12-09T05:55:01.594Z,25.47
2023-12-09T05:56:01.212Z,25.07
2023-12-09T05:57:01.259Z,25.47
2023-12-09T05:58:02.663Z,25.90
2023-12-09T05:59:01.588Z,25.13
2023-12-09T06:00:01.832Z,26.40
2023-12-09T06:01:01.710Z,25.23
2023-12-09T06:02:01.207Z,25.50
2023-12-09T06:03:01.517Z,26.13
2023-12-09T06:04:01.238Z,25.70
2023-12-09T06:05:01.196Z,26.40
2023-12-09T06:06:01.240Z,26.30
2023-12-09T06:07:01.279Z,25.70
2023-12-09T06:08:01.717Z,26.00
2023-12-09T06:09:01.210Z,26.13
2023-12-09T06:10:01.564Z,26.73
2023-12-09T06:11:02.097Z,26.50
2023-12-09T06:12:01.218Z,27.13
2023-12-09T06:13:01.223Z,26.60
2023-12-09T06:14:01.182Z,25.90
2023-12-09T06:15:01.302Z,25.87
2023-12-09T06:16:01.574Z,25.97
2023-12-09T06:17:01.194Z,24.70
2023-12-09T06:18:01.358Z,26.33
2023-12-09T06:19:01.224Z,25.57
2023-12-09T06:20:01.273Z,25.47
2023-12-09T06:21:01.249Z,26.20
2023-12-09T06:22:01.436Z,25.40
2023-12-09T06:23:01.195Z,26.47
2023-12-09T06:24:01.560Z,25.80
2023-12-09T06:25:01.552Z,25.73
2023-12-09T06:26:02.689Z,25.33
2023-12-09T06:27:01.236Z,25.73
2023-12-09T06:28:01.204Z,26.63
2023-12-09T06:29:01.205Z,26.93
2023-12-09T06:30:01.587Z,26.03
2023-12-09T06:31:01.171Z,26.37
2023-12-09T06:32:01.188Z,25.93
2023-12-09T06:33:01.457Z,25.77
2023-12-09T06:34:01.368Z,25.60
2023-12-09T06:35:01.199Z,25.23
2023-12-09T06:36:01.192Z,25.90
2023-12-09T06:37:01.556Z,25.83
2023-12-09T06:38:01.172Z,24.73
2023-12-09T06:39:03.249Z,24.00
2023-12-09T06:40:01.175Z,24.73
2023-12-09T06:41:01.194Z,24.57
2023-12-09T06:42:01.622Z,24.30
2023-12-09T06:43:01.178Z,24.23
2023-12-09T06:44:01.321Z,25.10
2023-12-09T06:45:01.228Z,23.53
2023-12-09T06:46:01.300Z,24.67
2023-12-09T06:47:01.190Z,25.60
2023-12-09T06:48:01.385Z,24.73
2023-12-09T06:49:03.838Z,25.37
2023-12-09T06:50:01.509Z,24.73
2023-12-09T06:51:01.600Z,25.63
2023-12-09T06:52:01.556Z,25.67
2023-12-09T06:53:01.225Z,24.27
2023-12-09T06:54:01.247Z,25.60
2023-12-09T06:55:01.652Z,25.50
2023-12-09T06:56:01.524Z,24.53
2023-12-09T06:57:01.224Z,25.27
2023-12-09T06:58:02.517Z,25.53
2023-12-09T06:59:01.193Z,24.50
2023-12-09T07:00:01.749Z,25.30
2023-12-09T07:01:01.387Z,26.37
2023-12-09T07:02:01.180Z,25.67
2023-12-09T07:03:01.465Z,24.90
2023-12-09T07:04:01.666Z,25.57
2023-12-09T07:05:01.229Z,25.07
2023-12-09T07:06:02.051Z,25.07
2023-12-09T07:07:01.548Z,25.97
2023-12-09T07:08:01.191Z,25.13
2023-12-09T07:09:01.211Z,25.30
2023-12-09T07:10:01.183Z,25.77
2023-12-09T07:11:01.269Z,24.93
2023-12-09T07:12:02.794Z,24.73
2023-12-09T07:13:01.198Z,24.00
2023-12-09T07:14:01.241Z,24.67
2023-12-09T07:15:01.228Z,24.00
2023-12-09T07:16:01.651Z,24.40
2023-12-09T07:17:01.514Z,23.30
2023-12-09T07:18:01.361Z,23.70
2023-12-09T07:19:01.770Z,22.57
2023-12-09T07:20:01.567Z,24.20
2023-12-09T07:21:01.233Z,22.70
2023-12-09T07:22:01.219Z,22.33
2023-12-09T07:23:01.649Z,24.53
2023-12-09T07:24:01.260Z,23.80
2023-12-09T07:25:01.537Z,23.57
2023-12-09T07:26:01.504Z,22.67
2023-12-09T07:27:01.274Z,24.77
2023-12-09T07:28:01.514Z,23.93
2023-12-09T07:29:01.178Z,23.87
2023-12-09T07:30:01.673Z,24.07
2023-12-09T07:31:01.863Z,23.30
2023-12-09T07:32:01.494Z,23.23
2023-12-09T07:33:01.298Z,23.60
2023-12-09T07:34:01.705Z,24.63
2023-12-09T07:35:01.278Z,22.63
2023-12-09T07:36:01.632Z,23.10
2023-12-09T07:37:01.520Z,23.13
2023-12-09T07:38:01.175Z,23.07
2023-12-09T07:39:01.459Z,22.70
2023-12-09T07:40:01.204Z,22.63
2023-12-09T07:41:01.186Z,23.23
2023-12-09T07:42:01.257Z,23.00
2023-12-09T07:43:01.190Z,22.63
2023-12-09T07:44:01.185Z,23.67
2023-12-09T07:45:01.212Z,23.10
2023-12-09T07:46:01.185Z,22.93
2023-12-09T07:47:01.306Z,23.13
2023-12-09T07:48:01.462Z,23.57
2023-12-09T07:49:01.604Z,23.07
2023-12-09T07:50:01.553Z,22.67
2023-12-09T07:51:01.383Z,22.97
2023-12-09T07:52:01.203Z,22.17
2023-12-09T07:53:01.620Z,23.77
2023-12-09T07:54:01.567Z,23.40
2023-12-09T07:55:01.202Z,22.93
2023-12-09T07:56:01.172Z,23.93
2023-12-09T07:57:01.215Z,24.20
2023-12-09T07:58:01.505Z,23.23
2023-12-09T07:59:01.186Z,24.00
2023-12-09T08:00:01.227Z,22.50
2023-12-09T08:01:01.855Z,23.67
2023-12-09T08:02:01.183Z,23.43
2023-12-09T08:03:04.229Z,22.20
2023-12-09T08:04:01.598Z,23.40
2023-12-09T08:05:01.579Z,22.27
2023-12-09T08:06:01.270Z,22.93
2023-12-09T08:07:01.520Z,22.97
2023-12-09T08:08:01.562Z,22.53
2023-12-09T08:09:01.253Z,23.17
2023-12-09T08:10:01.194Z,22.40
2023-12-09T08:11:01.198Z,22.90
2023-12-09T08:12:01.447Z,23.47
2023-12-09T08:13:01.193Z,22.80
2023-12-09T08:14:01.523Z,23.07
2023-12-09T08:15:01.275Z,24.43
2023-12-09T08:16:01.196Z,23.40
2023-12-09T08:17:01.188Z,22.80
2023-12-09T08:18:01.728Z,24.47
2023-12-09T08:19:01.582Z,23.07
2023-12-09T08:20:01.502Z,22.07
2023-12-09T08:21:01.513Z,22.93
2023-12-09T08:22:01.613Z,23.67
2023-12-09T08:23:01.873Z,23.70
2023-12-09T08:24:01.213Z,23.77
2023-12-09T08:25:01.181Z,23.00
2023-12-09T08:26:01.181Z,23.93
2023-12-09T08:27:01.233Z,23.60
2023-12-09T08:28:01.512Z,24.00
2023-12-09T08:29:01.182Z,23.40
2023-12-09T08:30:01.333Z,24.03
2023-12-09T08:31:01.529Z,23.43
2023-12-09T08:32:01.695Z,22.77
2023-12-09T08:33:01.671Z,23.40
2023-12-09T08:34:01.332Z,23.70
2023-12-09T08:35:09.079Z,22.97
2023-12-09T08:36:01.214Z,23.70
2023-12-09T08:37:01.569Z,22.93
2023-12-09T08:38:01.190Z,23.77
2023-12-09T08:39:01.230Z,23.40
2023-12-09T08:40:05.356Z,21.83
2023-12-09T08:41:01.515Z,23.90
2023-12-09T08:42:01.253Z,22.83
2023-12-09T08:43:01.212Z,22.70
2023-12-09T08:44:02.752Z,22.23
2023-12-09T08:45:01.439Z,22.97
2023-12-09T08:46:01.193Z,23.10
2023-12-09T08:47:01.618Z,23.53
2023-12-09T08:48:01.333Z,24.07
2023-12-09T08:49:01.387Z,23.87
2023-12-09T08:50:02.022Z,23.13
2023-12-09T08:51:01.207Z,22.60
2023-12-09T08:52:01.199Z,23.27
2023-12-09T08:53:01.548Z,23.93
2023-12-09T08:54:01.523Z,24.13
2023-12-09T08:55:02.139Z,23.03
2023-12-09T08:56:01.413Z,24.17
2023-12-09T08:57:01.618Z,23.27
2023-12-09T08:58:01.184Z,23.97
2023-12-09T08:59:01.177Z,23.70
2023-12-09T09:00:01.904Z,23.57
2023-12-09T09:01:01.589Z,24.10
2023-12-09T09:02:01.507Z,22.10
2023-12-09T09:03:01.551Z,23.33
2023-12-09T09:04:01.962Z,23.07
2023-12-09T09:05:01.273Z,23.80
2023-12-09T09:06:01.728Z,22.80
2023-12-09T09:07:01.314Z,22.43
2023-12-09T09:08:01.176Z,22.20
2023-12-09T09:09:01.572Z,22.90
2023-12-09T09:10:01.179Z,22.10
2023-12-09T09:11:01.727Z,21.80
2023-12-09T09:12:01.566Z,22.53
2023-12-09T09:13:01.490Z,22.10
2023-12-09T09:14:01.175Z,22.23
2023-12-09T09:15:05.034Z,21.97
2023-12-09T09:16:01.233Z,22.60
2023-12-09T09:17:01.168Z,21.87
2023-12-09T09:18:01.838Z,22.07
2023-12-09T09:19:01.568Z,23.10
2023-12-09T09:20:01.543Z,22.40
2023-12-09T09:21:01.202Z,22.87
2023-12-09T09:22:01.209Z,23.37
2023-12-09T09:23:01.185Z,22.80
2023-12-09T09:24:01.206Z,23.83
2023-12-09T09:25:01.803Z,22.00
2023-12-09T09:26:01.244Z,22.10
2023-12-09T09:27:01.247Z,23.40
2023-12-09T09:28:01.534Z,22.27
2023-12-09T09:29:01.340Z,22.07
2023-12-09T09:30:01.637Z,21.93
2023-12-09T09:31:01.185Z,22.60
2023-12-09T09:32:01.197Z,21.80
2023-12-09T09:33:01.471Z,22.00
2023-12-09T09:34:01.304Z,20.63
2023-12-09T09:35:01.599Z,21.00
2023-12-09T09:36:01.197Z,22.00
2023-12-09T09:37:01.515Z,23.07
2023-12-09T09:38:01.179Z,22.00
2023-12-09T09:39:01.552Z,21.73
2023-12-09T09:40:01.507Z,22.30
2023-12-09T09:41:07.121Z,23.07
2023-12-09T09:42:09.868Z,22.47
2023-12-09T09:43:07.894Z,23.03
2023-12-09T09:44:11.675Z,22.10
2023-12-09T09:45:10.081Z,21.47
2023-12-09T09:46:01.793Z,22.30
2023-12-09T09:47:01.936Z,22.03
2023-12-09T09:48:04.204Z,22.03
2023-12-09T09:49:03.181Z,20.37
2023-12-09T09:50:02.722Z,21.50
2023-12-09T09:51:03.586Z,22.33
2023-12-09T09:52:02.574Z,20.80
2023-12-09T09:53:03.391Z,21.87
2023-12-09T09:54:10.558Z,22.20
2023-12-09T09:55:02.400Z,21.20
2023-12-09T09:56:01.892Z,20.13
2023-12-09T09:57:02.059Z,20.77
2023-12-09T09:58:02.420Z,21.33
2023-12-09T09:59:01.553Z,22.10
2023-12-09T10:00:01.794Z,21.47
2023-12-09T10:01:03.779Z,22.97
2023-12-09T10:02:04.169Z,22.00
2023-12-09T10:03:04.239Z,21.10
2023-12-09T10:04:01.372Z,21.13
2023-12-09T10:05:01.201Z,22.27
2023-12-09T10:06:02.146Z,22.07
2023-12-09T10:07:03.676Z,22.00
2023-12-09T10:08:01.412Z,21.83
2023-12-09T10:09:01.819Z,21.80
2023-12-09T10:10:01.655Z,22.17
2023-12-09T10:11:01.204Z,21.30
2023-12-09T10:12:01.222Z,22.23
2023-12-09T10:13:01.396Z,21.73
2023-12-09T10:14:01.212Z,21.03
2023-12-09T10:15:01.860Z,21.60
2023-12-09T10:16:01.516Z,22.20
2023-12-09T10:17:03.087Z,21.40
2023-12-09T10:18:02.321Z,20.90
2023-12-09T10:19:01.699Z,21.60
2023-12-09T10:20:01.658Z,21.60
2023-12-09T10:21:01.593Z,21.60
2023-12-09T10:22:01.521Z,21.67
2023-12-09T10:23:01.540Z,22.27
2023-12-09T10:24:04.437Z,20.97
2023-12-09T10:25:01.596Z,22.03
2023-12-09T10:26:02.135Z,22.03
2023-12-09T10:27:01.639Z,21.47
2023-12-09T10:28:01.648Z,21.80
2023-12-09T10:29:01.325Z,20.67
2023-12-09T10:30:01.905Z,21.90
2023-12-09T10:31:01.787Z,20.47
2023-12-09T10:32:01.250Z,22.00
2023-12-09T10:33:01.569Z,21.00
2023-12-09T10:34:01.971Z,21.43
2023-12-09T10:35:04.520Z,20.97
2023-12-09T10:36:01.648Z,19.80
2023-12-09T10:37:01.759Z,21.40
2023-12-09T10:38:01.244Z,21.07
2023-12-09T10:39:03.435Z,21.63
2023-12-09T10:40:02.703Z,21.37
2023-12-09T10:41:04.650Z,21.33
2023-12-09T10:42:03.600Z,21.07
2023-12-09T10:43:01.771Z,20.67
2023-12-09T10:44:01.499Z,21.70
2023-12-09T10:45:02.281Z,21.67
2023-12-09T10:46:02.935Z,21.00
2023-12-09T10:47:01.280Z,22.00
2023-12-09T10:48:01.363Z,20.43
2023-12-09T10:49:01.274Z,19.73
2023-12-09T10:50:01.581Z,20.60
2023-12-09T10:51:01.279Z,19.90
2023-12-09T10:52:01.664Z,21.37
2023-12-09T10:53:01.212Z,20.63
2023-12-09T10:54:01.267Z,21.27
2023-12-09T10:55:01.194Z,21.17
2023-12-09T10:56:02.217Z,20.37
2023-12-09T10:57:02.903Z,21.27
2023-12-09T10:58:04.369Z,20.37
2023-12-09T10:59:02.156Z,20.33
2023-12-09T11:00:02.698Z,20.87
2023-12-09T11:01:02.490Z,21.50
2023-12-09T11:02:01.969Z,20.03
2023-12-09T11:03:02.331Z,21.13
2023-12-09T11:04:02.159Z,19.47
2023-12-09T11:05:02.057Z,21.50
2023-12-09T11:06:04.712Z,20.87
2023-12-09T11:07:04.555Z,20.90
2023-12-09T11:08:02.025Z,20.73
2023-12-09T11:09:02.402Z,20.83
2023-12-09T11:10:03.597Z,21.17
2023-12-09T11:11:02.602Z,21.23
2023-12-09T11:12:01.354Z,21.50
2023-12-09T11:13:01.657Z,19.77
2023-12-09T11:14:01.519Z,21.60
2023-12-09T11:15:06.016Z,20.03
2023-12-09T11:16:10.428Z,21.57
2023-12-09T11:17:01.543Z,20.67
2023-12-09T11:18:08.069Z,21.87
2023-12-09T11:19:01.645Z,21.30
2023-12-09T11:20:04.096Z,21.00
2023-12-09T11:21:03.045Z,22.00
2023-12-09T11:22:01.174Z,20.63
2023-12-09T11:23:01.202Z,21.33
2023-12-09T11:24:01.566Z,20.47
2023-12-09T11:25:01.185Z,21.47
2023-12-09T11:26:01.204Z,20.80
2023-12-09T11:27:01.211Z,21.57
2023-12-09T11:28:03.362Z,20.90
2023-12-09T11:29:03.368Z,21.47
2023-12-09T11:30:02.350Z,21.07
2023-12-09T11:31:02.283Z,21.83
2023-12-09T11:32:07.092Z,22.03
2023-12-09T11:33:02.084Z,22.10
2023-12-09T11:34:02.660Z,21.93
2023-12-09T11:35:02.342Z,21.13
2023-12-09T11:36:02.745Z,20.40
2023-12-09T11:37:02.401Z,20.13
2023-12-09T11:38:03.556Z,20.80
2023-12-09T11:39:02.137Z,19.37
2023-12-09T11:40:01.949Z,20.47
2023-12-09T11:41:01.718Z,22.17
2023-12-09T11:42:01.906Z,21.53
2023-12-09T11:43:02.780Z,20.90
2023-12-09T11:44:02.058Z,20.57
2023-12-09T11:45:03.148Z,20.87
2023-12-09T11:46:02.289Z,21.10
2023-12-09T11:47:02.078Z,21.47
2023-12-09T11:48:02.243Z,21.23
2023-12-09T11:49:03.506Z,21.70
2023-12-09T11:50:02.412Z,21.33
2023-12-09T11:51:02.966Z,21.07
2023-12-09T11:52:01.876Z,21.37
2023-12-09T11:53:01.514Z,20.53
2023-12-09T11:54:03.802Z,21.63
2023-12-09T11:55:02.130Z,21.17
2023-12-09T11:56:01.539Z,20.93
2023-12-09T11:57:02.944Z,21.07
2023-12-09T11:58:01.199Z,21.33
2023-12-09T11:59:01.692Z,21.30
2023-12-09T12:00:01.601Z,21.47
2023-12-09T12:01:01.318Z,21.63
2023-12-09T12:02:01.221Z,21.00
2023-12-09T12:03:01.523Z,20.27
2023-12-09T12:04:01.706Z,21.27
2023-12-09T12:05:01.556Z,21.30
2023-12-09T12:06:01.669Z,21.30
2023-12-09T12:07:01.707Z,21.47
2023-12-09T12:08:01.211Z,20.27
2023-12-09T12:09:01.792Z,21.63
2023-12-09T12:10:01.452Z,21.73
2023-12-09T12:11:01.225Z,20.23
2023-12-09T12:12:01.367Z,20.27
2023-12-09T12:13:01.777Z,20.77
2023-12-09T12:14:02.068Z,19.07
2023-12-09T12:15:02.596Z,20.40
2023-12-09T12:16:01.661Z,20.30
2023-12-09T12:17:01.725Z,20.17
2023-12-09T12:18:01.595Z,20.83
2023-12-09T12:19:01.627Z,21.63
2023-12-09T12:20:01.206Z,20.57
2023-12-09T12:21:01.828Z,22.03
2023-12-09T12:22:01.629Z,24.53
2023-12-09T12:23:02.230Z,23.17
2023-12-09T12:24:02.848Z,21.70
2023-12-09T12:25:01.775Z,22.00
2023-12-09T12:26:01.855Z,20.70
2023-12-09T12:27:03.251Z,20.80
2023-12-09T12:28:01.276Z,19.50
2023-12-09T12:29:01.437Z,20.93
2023-12-09T12:30:01.765Z,21.67
2023-12-09T12:31:01.821Z,19.23
2023-12-09T12:32:01.642Z,20.33
2023-12-09T12:33:02.284Z,21.60
2023-12-09T12:34:14.313Z,20.70
2023-12-09T12:35:03.120Z,20.67
2023-12-09T12:36:01.335Z,20.80
2023-12-09T12:37:01.660Z,20.50
2023-12-09T12:38:01.610Z,19.50
2023-12-09T12:39:01.303Z,20.90
2023-12-09T12:40:01.285Z,21.10
2023-12-09T12:41:01.403Z,21.00
2023-12-09T12:42:01.388Z,22.30
2023-12-09T12:43:02.741Z,19.87
2023-12-09T12:44:01.652Z,21.10
2023-12-09T12:45:01.231Z,22.17
2023-12-09T12:46:01.494Z,21.00
2023-12-09T12:47:01.365Z,22.60
2023-12-09T12:48:01.432Z,21.37
2023-12-09T12:49:01.838Z,22.40
2023-12-09T12:50:01.252Z,21.23
2023-12-09T12:51:01.424Z,21.27
2023-12-09T12:52:01.812Z,20.73
2023-12-09T12:53:01.368Z,20.60
2023-12-09T12:54:02.189Z,20.70
2023-12-09T12:55:02.002Z,21.87
2023-12-09T12:56:01.311Z,21.87
2023-12-09T12:57:01.607Z,22.00
2023-12-09T12:58:01.897Z,21.80
2023-12-09T12:59:01.231Z,22.07